sensor_id;sensor_type;location;lat;lon;timestamp;P1;durP1;ratioP1;P2;durP2;ratioP2
34928;SDS011;21133;48.048;7.724;2023-02-28T00:02:18;1.30;;;1.30;;
34928;SDS011;21133;48.048;7.724;2023-02-28T00:04:44;1.70;;;1.70;;
34928;SDS011;21133;48.048;7.724;2023-02-28T00:07:17;1.40;;;1.40;;
34928;SDS011;21133;48.048;7.724;2023-02-28T00:09:43;1.00;;;0.93;;
34928;SDS011;21133;48.048;7.724;2023-02-28T00:12:09;1.30;;;1.30;;
34928;SDS011;21133;48.048;7.724;2023-02-28T00:14:36;1.27;;;1.27;;
34928;SDS011;21133;48.048;7.724;2023-02-28T00:17:02;1.50;;;1.50;;
34928;SDS011;21133;48.048;7.724;2023-02-28T00:19:28;2.30;;;2.10;;
34928;SDS011;21133;48.048;7.724;2023-02-28T00:21:54;2.33;;;2.20;;
34928;SDS011;21133;48.048;7.724;2023-02-28T00:24:20;1.33;;;1.33;;
34928;SDS011;21133;48.048;7.724;2023-02-28T00:26:46;1.90;;;1.60;;
34928;SDS011;21133;48.048;7.724;2023-02-28T00:29:11;3.10;;;1.60;;
34928;SDS011;21133;48.048;7.724;2023-02-28T00:31:37;4.20;;;1.05;;
34928;SDS011;21133;48.048;7.724;2023-02-28T00:34:03;1.90;;;1.80;;
34928;SDS011;21133;48.048;7.724;2023-02-28T00:36:29;2.50;;;2.03;;
34928;SDS011;21133;48.048;7.724;2023-02-28T00:38:55;2.07;;;1.97;;
34928;SDS011;21133;48.048;7.724;2023-02-28T00:41:21;1.93;;;1.93;;
34928;SDS011;21133;48.048;7.724;2023-02-28T00:43:47;2.00;;;2.00;;
34928;SDS011;21133;48.048;7.724;2023-02-28T00:46:13;1.53;;;1.53;;
34928;SDS011;21133;48.048;7.724;2023-02-28T00:48:39;1.73;;;1.50;;
34928;SDS011;21133;48.048;7.724;2023-02-28T00:51:05;1.10;;;1.10;;
34928;SDS011;21133;48.048;7.724;2023-02-28T00:53:31;1.93;;;1.83;;
34928;SDS011;21133;48.048;7.724;2023-02-28T00:55:58;1.63;;;1.40;;
34928;SDS011;21133;48.048;7.724;2023-02-28T00:58:24;1.20;;;1.20;;
34928;SDS011;21133;48.048;7.724;2023-02-28T01:00:51;1.10;;;1.10;;
34928;SDS011;21133;48.048;7.724;2023-02-28T01:03:18;1.50;;;1.40;;
34928;SDS011;21133;48.048;7.724;2023-02-28T01:05:44;1.13;;;1.13;;
34928;SDS011;21133;48.048;7.724;2023-02-28T01:08:10;1.90;;;1.53;;
34928;SDS011;21133;48.048;7.724;2023-02-28T01:10:36;1.43;;;1.43;;
34928;SDS011;21133;48.048;7.724;2023-02-28T01:13:03;1.70;;;1.60;;
34928;SDS011;21133;48.048;7.724;2023-02-28T01:15:29;1.13;;;1.13;;
34928;SDS011;21133;48.048;7.724;2023-02-28T01:17:56;1.03;;;1.03;;
34928;SDS011;21133;48.048;7.724;2023-02-28T01:20:22;1.70;;;1.43;;
34928;SDS011;21133;48.048;7.724;2023-02-28T01:22:49;1.87;;;1.20;;
34928;SDS011;21133;48.048;7.724;2023-02-28T01:25:15;1.37;;;1.37;;
34928;SDS011;21133;48.048;7.724;2023-02-28T01:27:40;1.00;;;1.00;;
34928;SDS011;21133;48.048;7.724;2023-02-28T01:30:07;1.60;;;1.50;;
34928;SDS011;21133;48.048;7.724;2023-02-28T01:32:33;1.40;;;1.40;;
34928;SDS011;21133;48.048;7.724;2023-02-28T01:34:59;1.20;;;1.20;;
34928;SDS011;21133;48.048;7.724;2023-02-28T01:37:25;1.03;;;1.03;;
34928;SDS011;21133;48.048;7.724;2023-02-28T01:39:51;1.10;;;1.10;;
34928;SDS011;21133;48.048;7.724;2023-02-28T01:42:17;1.60;;;1.30;;
34928;SDS011;21133;48.048;7.724;2023-02-28T01:47:29;2.10;;;0.97;;
34928;SDS011;21133;48.048;7.724;2023-02-28T01:49:57;1.00;;;1.00;;
34928;SDS011;21133;48.048;7.724;2023-02-28T01:52:24;1.03;;;1.00;;
34928;SDS011;21133;48.048;7.724;2023-02-28T01:54:51;1.37;;;1.37;;
34928;SDS011;21133;48.048;7.724;2023-02-28T01:57:18;1.23;;;1.23;;
34928;SDS011;21133;48.048;7.724;2023-02-28T01:59:47;1.50;;;1.50;;
34928;SDS011;21133;48.048;7.724;2023-02-28T02:02:16;1.10;;;1.10;;
34928;SDS011;21133;48.048;7.724;2023-02-28T02:04:50;3.80;;;1.40;;
34928;SDS011;21133;48.048;7.724;2023-02-28T02:07:16;1.30;;;1.30;;
34928;SDS011;21133;48.048;7.724;2023-02-28T02:09:42;1.30;;;1.30;;
34928;SDS011;21133;48.048;7.724;2023-02-28T02:12:16;3.63;;;1.40;;
34928;SDS011;21133;48.048;7.724;2023-02-28T02:14:56;0.90;;;0.90;;
34928;SDS011;21133;48.048;7.724;2023-02-28T02:17:38;1.40;;;1.40;;
34928;SDS011;21133;48.048;7.724;2023-02-28T02:23:01;1.00;;;1.00;;
34928;SDS011;21133;48.048;7.724;2023-02-28T02:25:40;6.83;;;1.63;;
34928;SDS011;21133;48.048;7.724;2023-02-28T02:38:46;1.80;;;1.70;;
34928;SDS011;21133;48.048;7.724;2023-02-28T02:41:17;1.13;;;1.13;;
34928;SDS011;21133;48.048;7.724;2023-02-28T02:46:53;0.90;;;0.90;;
34928;SDS011;21133;48.048;7.724;2023-02-28T02:48:59;1.47;;;1.37;;
34928;SDS011;21133;48.048;7.724;2023-02-28T02:51:26;1.20;;;1.07;;
34928;SDS011;21133;48.048;7.724;2023-02-28T02:53:59;1.20;;;1.10;;
34928;SDS011;21133;48.048;7.724;2023-02-28T02:56:27;1.17;;;1.17;;
34928;SDS011;21133;48.048;7.724;2023-02-28T02:58:54;1.20;;;1.20;;
34928;SDS011;21133;48.048;7.724;2023-02-28T03:01:22;1.37;;;1.30;;
34928;SDS011;21133;48.048;7.724;2023-02-28T03:03:56;1.10;;;1.10;;
34928;SDS011;21133;48.048;7.724;2023-02-28T03:06:24;1.50;;;1.50;;
34928;SDS011;21133;48.048;7.724;2023-02-28T03:08:50;1.70;;;1.20;;
34928;SDS011;21133;48.048;7.724;2023-02-28T03:11:16;1.30;;;1.30;;
34928;SDS011;21133;48.048;7.724;2023-02-28T03:21:32;1.60;;;1.27;;
34928;SDS011;21133;48.048;7.724;2023-02-28T03:24:03;2.30;;;1.70;;
34928;SDS011;21133;48.048;7.724;2023-02-28T03:26:31;1.57;;;1.57;;
34928;SDS011;21133;48.048;7.724;2023-02-28T03:29:05;1.60;;;1.60;;
34928;SDS011;21133;48.048;7.724;2023-02-28T03:31:37;2.00;;;1.47;;
34928;SDS011;21133;48.048;7.724;2023-02-28T03:36:31;1.50;;;1.40;;
34928;SDS011;21133;48.048;7.724;2023-02-28T03:39:02;1.17;;;1.17;;
34928;SDS011;21133;48.048;7.724;2023-02-28T03:41:35;1.23;;;1.23;;
34928;SDS011;21133;48.048;7.724;2023-02-28T03:44:05;1.93;;;1.57;;
34928;SDS011;21133;48.048;7.724;2023-02-28T03:46:33;6.60;;;1.47;;
34928;SDS011;21133;48.048;7.724;2023-02-28T03:49:02;7.63;;;1.57;;
34928;SDS011;21133;48.048;7.724;2023-02-28T03:51:30;1.30;;;1.30;;
34928;SDS011;21133;48.048;7.724;2023-02-28T03:53:58;4.17;;;1.33;;
34928;SDS011;21133;48.048;7.724;2023-02-28T03:56:27;1.80;;;1.70;;
34928;SDS011;21133;48.048;7.724;2023-02-28T04:01:28;1.50;;;1.40;;
34928;SDS011;21133;48.048;7.724;2023-02-28T04:03:57;1.30;;;1.30;;
34928;SDS011;21133;48.048;7.724;2023-02-28T04:06:23;1.20;;;1.20;;
34928;SDS011;21133;48.048;7.724;2023-02-28T04:08:50;1.53;;;1.43;;
34928;SDS011;21133;48.048;7.724;2023-02-28T04:13:51;1.00;;;1.00;;
34928;SDS011;21133;48.048;7.724;2023-02-28T04:16:17;1.13;;;1.13;;
34928;SDS011;21133;48.048;7.724;2023-02-28T04:18:43;2.07;;;1.60;;
34928;SDS011;21133;48.048;7.724;2023-02-28T04:21:09;1.63;;;1.53;;
34928;SDS011;21133;48.048;7.724;2023-02-28T04:23:35;1.37;;;1.37;;
34928;SDS011;21133;48.048;7.724;2023-02-28T04:26:01;2.50;;;1.40;;
34928;SDS011;21133;48.048;7.724;2023-02-28T04:28:27;3.23;;;1.40;;
34928;SDS011;21133;48.048;7.724;2023-02-28T04:30:54;1.60;;;1.60;;
34928;SDS011;21133;48.048;7.724;2023-02-28T04:33:20;1.73;;;1.73;;
34928;SDS011;21133;48.048;7.724;2023-02-28T04:35:46;1.33;;;1.33;;
34928;SDS011;21133;48.048;7.724;2023-02-28T04:38:12;1.30;;;1.30;;
34928;SDS011;21133;48.048;7.724;2023-02-28T04:40:38;1.37;;;1.37;;
34928;SDS011;21133;48.048;7.724;2023-02-28T04:43:04;2.53;;;2.33;;
34928;SDS011;21133;48.048;7.724;2023-02-28T04:45:30;1.37;;;1.37;;
34928;SDS011;21133;48.048;7.724;2023-02-28T04:47:57;1.67;;;1.57;;
34928;SDS011;21133;48.048;7.724;2023-02-28T04:50:23;1.50;;;1.40;;
34928;SDS011;21133;48.048;7.724;2023-02-28T04:52:49;1.50;;;1.40;;
34928;SDS011;21133;48.048;7.724;2023-02-28T04:55:15;1.47;;;1.47;;
34928;SDS011;21133;48.048;7.724;2023-02-28T04:57:41;1.83;;;1.50;;
34928;SDS011;21133;48.048;7.724;2023-02-28T05:00:09;3.17;;;2.07;;
34928;SDS011;21133;48.048;7.724;2023-02-28T05:02:36;1.50;;;1.50;;
34928;SDS011;21133;48.048;7.724;2023-02-28T05:05:04;1.20;;;1.20;;
34928;SDS011;21133;48.048;7.724;2023-02-28T05:07:29;1.93;;;1.83;;
34928;SDS011;21133;48.048;7.724;2023-02-28T05:09:55;1.60;;;1.50;;
34928;SDS011;21133;48.048;7.724;2023-02-28T05:12:21;1.70;;;1.70;;
34928;SDS011;21133;48.048;7.724;2023-02-28T05:14:47;1.63;;;1.63;;
34928;SDS011;21133;48.048;7.724;2023-02-28T05:17:13;1.63;;;1.63;;
34928;SDS011;21133;48.048;7.724;2023-02-28T05:19:39;1.43;;;1.33;;
34928;SDS011;21133;48.048;7.724;2023-02-28T05:22:09;1.50;;;1.50;;
34928;SDS011;21133;48.048;7.724;2023-02-28T05:24:38;1.57;;;1.57;;
34928;SDS011;21133;48.048;7.724;2023-02-28T05:27:03;1.80;;;1.80;;
34928;SDS011;21133;48.048;7.724;2023-02-28T05:29:29;5.30;;;1.77;;
34928;SDS011;21133;48.048;7.724;2023-02-28T05:31:55;1.47;;;1.47;;
34928;SDS011;21133;48.048;7.724;2023-02-28T05:34:21;2.50;;;2.40;;
34928;SDS011;21133;48.048;7.724;2023-02-28T05:36:47;1.47;;;1.43;;
34928;SDS011;21133;48.048;7.724;2023-02-28T05:39:13;1.80;;;1.70;;
34928;SDS011;21133;48.048;7.724;2023-02-28T05:41:43;3.33;;;2.03;;
34928;SDS011;21133;48.048;7.724;2023-02-28T05:44:09;1.70;;;1.60;;
34928;SDS011;21133;48.048;7.724;2023-02-28T05:46:35;2.40;;;2.30;;
34928;SDS011;21133;48.048;7.724;2023-02-28T05:49:01;5.63;;;1.73;;
34928;SDS011;21133;48.048;7.724;2023-02-28T05:51:27;3.80;;;3.70;;
34928;SDS011;21133;48.048;7.724;2023-02-28T05:53:53;1.73;;;1.63;;
34928;SDS011;21133;48.048;7.724;2023-02-28T05:56:20;1.60;;;1.50;;
34928;SDS011;21133;48.048;7.724;2023-02-28T05:58:46;1.50;;;1.40;;
34928;SDS011;21133;48.048;7.724;2023-02-28T06:03:47;2.50;;;2.40;;
34928;SDS011;21133;48.048;7.724;2023-02-28T06:06:13;1.60;;;1.50;;
34928;SDS011;21133;48.048;7.724;2023-02-28T06:08:39;2.13;;;1.90;;
34928;SDS011;21133;48.048;7.724;2023-02-28T06:11:05;1.90;;;1.90;;
34928;SDS011;21133;48.048;7.724;2023-02-28T06:13:31;3.10;;;1.93;;
34928;SDS011;21133;48.048;7.724;2023-02-28T06:16:00;2.03;;;1.93;;
34928;SDS011;21133;48.048;7.724;2023-02-28T06:18:26;2.07;;;2.07;;
34928;SDS011;21133;48.048;7.724;2023-02-28T06:20:55;1.93;;;1.83;;
34928;SDS011;21133;48.048;7.724;2023-02-28T06:23:21;1.60;;;1.60;;
34928;SDS011;21133;48.048;7.724;2023-02-28T06:25:47;2.10;;;2.00;;
34928;SDS011;21133;48.048;7.724;2023-02-28T06:28:14;1.93;;;1.93;;
34928;SDS011;21133;48.048;7.724;2023-02-28T06:30:40;2.03;;;1.93;;
34928;SDS011;21133;48.048;7.724;2023-02-28T06:33:06;2.17;;;2.17;;
34928;SDS011;21133;48.048;7.724;2023-02-28T06:35:32;3.30;;;2.03;;
34928;SDS011;21133;48.048;7.724;2023-02-28T06:37:58;1.73;;;1.67;;
34928;SDS011;21133;48.048;7.724;2023-02-28T06:40:24;3.50;;;3.30;;
34928;SDS011;21133;48.048;7.724;2023-02-28T06:42:50;4.63;;;1.80;;
34928;SDS011;21133;48.048;7.724;2023-02-28T06:45:16;2.13;;;1.93;;
34928;SDS011;21133;48.048;7.724;2023-02-28T06:47:42;1.90;;;1.80;;
34928;SDS011;21133;48.048;7.724;2023-02-28T06:50:11;1.73;;;1.70;;
34928;SDS011;21133;48.048;7.724;2023-02-28T06:52:38;1.80;;;1.70;;
34928;SDS011;21133;48.048;7.724;2023-02-28T06:55:04;2.37;;;2.27;;
34928;SDS011;21133;48.048;7.724;2023-02-28T06:57:31;2.07;;;1.97;;
34928;SDS011;21133;48.048;7.724;2023-02-28T06:59:58;2.20;;;2.10;;
34928;SDS011;21133;48.048;7.724;2023-02-28T07:02:24;3.10;;;2.90;;
34928;SDS011;21133;48.048;7.724;2023-02-28T07:04:51;2.93;;;2.27;;
34928;SDS011;21133;48.048;7.724;2023-02-28T07:07:17;3.53;;;2.43;;
34928;SDS011;21133;48.048;7.724;2023-02-28T07:09:43;2.63;;;2.43;;
34928;SDS011;21133;48.048;7.724;2023-02-28T07:12:09;2.47;;;2.38;;
34928;SDS011;21133;48.048;7.724;2023-02-28T07:14:36;2.47;;;2.37;;
34928;SDS011;21133;48.048;7.724;2023-02-28T07:17:02;2.40;;;2.30;;
34928;SDS011;21133;48.048;7.724;2023-02-28T07:19:28;2.60;;;2.50;;
34928;SDS011;21133;48.048;7.724;2023-02-28T07:21:54;1.97;;;1.87;;
34928;SDS011;21133;48.048;7.724;2023-02-28T07:24:20;1.93;;;1.80;;
34928;SDS011;21133;48.048;7.724;2023-02-28T07:26:48;1.77;;;1.77;;
34928;SDS011;21133;48.048;7.724;2023-02-28T07:29:14;2.40;;;2.27;;
34928;SDS011;21133;48.048;7.724;2023-02-28T07:31:40;1.40;;;1.40;;
34928;SDS011;21133;48.048;7.724;2023-02-28T07:34:06;1.97;;;1.97;;
34928;SDS011;21133;48.048;7.724;2023-02-28T07:36:32;2.83;;;2.73;;
34928;SDS011;21133;48.048;7.724;2023-02-28T07:38:58;2.77;;;2.50;;
34928;SDS011;21133;48.048;7.724;2023-02-28T07:41:24;2.27;;;2.17;;
34928;SDS011;21133;48.048;7.724;2023-02-28T07:43:55;2.67;;;2.47;;
34928;SDS011;21133;48.048;7.724;2023-02-28T07:46:22;2.43;;;2.33;;
34928;SDS011;21133;48.048;7.724;2023-02-28T07:48:48;7.40;;;6.60;;
34928;SDS011;21133;48.048;7.724;2023-02-28T07:51:14;6.90;;;4.90;;
34928;SDS011;21133;48.048;7.724;2023-02-28T07:53:40;3.40;;;3.30;;
34928;SDS011;21133;48.048;7.724;2023-02-28T07:56:06;4.53;;;3.80;;
34928;SDS011;21133;48.048;7.724;2023-02-28T07:58:32;2.47;;;2.37;;
34928;SDS011;21133;48.048;7.724;2023-02-28T08:01:04;2.50;;;2.50;;
34928;SDS011;21133;48.048;7.724;2023-02-28T08:03:31;3.00;;;2.80;;
34928;SDS011;21133;48.048;7.724;2023-02-28T08:05:57;2.57;;;2.47;;
34928;SDS011;21133;48.048;7.724;2023-02-28T08:08:23;2.00;;;2.00;;
34928;SDS011;21133;48.048;7.724;2023-02-28T08:10:49;3.40;;;3.30;;
34928;SDS011;21133;48.048;7.724;2023-02-28T08:13:15;4.03;;;2.60;;
34928;SDS011;21133;48.048;7.724;2023-02-28T08:15:41;1.93;;;1.90;;
34928;SDS011;21133;48.048;7.724;2023-02-28T08:18:07;2.60;;;2.50;;
34928;SDS011;21133;48.048;7.724;2023-02-28T08:20:33;2.97;;;2.70;;
34928;SDS011;21133;48.048;7.724;2023-02-28T08:22:59;3.03;;;2.93;;
34928;SDS011;21133;48.048;7.724;2023-02-28T08:25:25;3.57;;;3.07;;
34928;SDS011;21133;48.048;7.724;2023-02-28T08:27:51;2.50;;;2.40;;
34928;SDS011;21133;48.048;7.724;2023-02-28T08:30:17;4.20;;;2.83;;
34928;SDS011;21133;48.048;7.724;2023-02-28T08:32:43;2.97;;;2.60;;
34928;SDS011;21133;48.048;7.724;2023-02-28T08:35:10;3.00;;;2.80;;
34928;SDS011;21133;48.048;7.724;2023-02-28T08:37:36;3.20;;;3.00;;
34928;SDS011;21133;48.048;7.724;2023-02-28T08:40:02;4.20;;;3.37;;
34928;SDS011;21133;48.048;7.724;2023-02-28T08:42:29;2.80;;;2.70;;
34928;SDS011;21133;48.048;7.724;2023-02-28T08:44:54;2.83;;;2.63;;
34928;SDS011;21133;48.048;7.724;2023-02-28T08:47:21;2.93;;;2.80;;
34928;SDS011;21133;48.048;7.724;2023-02-28T08:49:47;2.13;;;2.13;;
34928;SDS011;21133;48.048;7.724;2023-02-28T08:52:13;3.10;;;2.90;;
34928;SDS011;21133;48.048;7.724;2023-02-28T08:54:39;3.63;;;3.30;;
34928;SDS011;21133;48.048;7.724;2023-02-28T08:57:05;3.67;;;3.47;;
34928;SDS011;21133;48.048;7.724;2023-02-28T08:59:31;3.47;;;3.37;;
34928;SDS011;21133;48.048;7.724;2023-02-28T09:01:57;6.43;;;5.40;;
34928;SDS011;21133;48.048;7.724;2023-02-28T09:04:23;3.60;;;3.30;;
34928;SDS011;21133;48.048;7.724;2023-02-28T09:06:49;2.60;;;2.50;;
34928;SDS011;21133;48.048;7.724;2023-02-28T09:09:15;4.20;;;3.93;;
34928;SDS011;21133;48.048;7.724;2023-02-28T09:11:41;5.50;;;3.67;;
34928;SDS011;21133;48.048;7.724;2023-02-28T09:14:07;3.43;;;3.23;;
34928;SDS011;21133;48.048;7.724;2023-02-28T09:16:34;6.30;;;5.70;;
34928;SDS011;21133;48.048;7.724;2023-02-28T09:19:00;3.83;;;3.50;;
34928;SDS011;21133;48.048;7.724;2023-02-28T09:21:26;2.93;;;2.80;;
34928;SDS011;21133;48.048;7.724;2023-02-28T09:23:52;6.43;;;5.83;;
34928;SDS011;21133;48.048;7.724;2023-02-28T09:26:20;9.20;;;3.90;;
34928;SDS011;21133;48.048;7.724;2023-02-28T09:28:47;6.63;;;4.70;;
34928;SDS011;21133;48.048;7.724;2023-02-28T09:31:13;5.17;;;4.70;;
34928;SDS011;21133;48.048;7.724;2023-02-28T09:33:40;3.67;;;3.37;;
34928;SDS011;21133;48.048;7.724;2023-02-28T09:36:06;4.20;;;4.00;;
34928;SDS011;21133;48.048;7.724;2023-02-28T09:38:32;4.70;;;4.50;;
34928;SDS011;21133;48.048;7.724;2023-02-28T09:41:00;3.73;;;3.40;;
34928;SDS011;21133;48.048;7.724;2023-02-28T09:43:34;3.33;;;3.23;;
34928;SDS011;21133;48.048;7.724;2023-02-28T09:48:44;3.40;;;3.20;;
34928;SDS011;21133;48.048;7.724;2023-02-28T09:51:14;5.60;;;4.00;;
34928;SDS011;21133;48.048;7.724;2023-02-28T09:53:41;3.23;;;3.13;;
34928;SDS011;21133;48.048;7.724;2023-02-28T09:56:08;3.70;;;3.60;;
34928;SDS011;21133;48.048;7.724;2023-02-28T09:58:49;2.97;;;2.87;;
34928;SDS011;21133;48.048;7.724;2023-02-28T10:03:47;3.17;;;3.07;;
34928;SDS011;21133;48.048;7.724;2023-02-28T10:06:18;3.70;;;3.50;;
34928;SDS011;21133;48.048;7.724;2023-02-28T10:09:05;3.60;;;3.50;;
34928;SDS011;21133;48.048;7.724;2023-02-28T10:11:34;5.70;;;4.23;;
34928;SDS011;21133;48.048;7.724;2023-02-28T10:14:06;7.60;;;5.40;;
34928;SDS011;21133;48.048;7.724;2023-02-28T10:24:29;4.00;;;3.80;;
34928;SDS011;21133;48.048;7.724;2023-02-28T10:26:58;5.40;;;4.60;;
34928;SDS011;21133;48.048;7.724;2023-02-28T10:29:26;4.40;;;4.20;;
34928;SDS011;21133;48.048;7.724;2023-02-28T10:31:52;4.67;;;4.27;;
34928;SDS011;21133;48.048;7.724;2023-02-28T10:34:17;5.07;;;4.60;;
34928;SDS011;21133;48.048;7.724;2023-02-28T10:36:43;4.30;;;4.00;;
34928;SDS011;21133;48.048;7.724;2023-02-28T10:39:52;4.30;;;4.20;;
34928;SDS011;21133;48.048;7.724;2023-02-28T10:41:59;5.37;;;4.97;;
34928;SDS011;21133;48.048;7.724;2023-02-28T10:44:25;3.40;;;3.30;;
34928;SDS011;21133;48.048;7.724;2023-02-28T10:46:51;3.20;;;3.00;;
34928;SDS011;21133;48.048;7.724;2023-02-28T10:49:19;3.50;;;3.40;;
34928;SDS011;21133;48.048;7.724;2023-02-28T10:51:45;3.70;;;3.40;;
34928;SDS011;21133;48.048;7.724;2023-02-28T10:54:18;3.17;;;2.97;;
34928;SDS011;21133;48.048;7.724;2023-02-28T10:56:44;3.77;;;3.57;;
34928;SDS011;21133;48.048;7.724;2023-02-28T10:59:30;5.00;;;2.97;;
34928;SDS011;21133;48.048;7.724;2023-02-28T11:01:56;3.30;;;3.10;;
34928;SDS011;21133;48.048;7.724;2023-02-28T11:07:33;4.17;;;4.07;;
34928;SDS011;21133;48.048;7.724;2023-02-28T11:09:35;4.33;;;4.00;;
34928;SDS011;21133;48.048;7.724;2023-02-28T11:12:04;3.90;;;3.57;;
34928;SDS011;21133;48.048;7.724;2023-02-28T11:14:32;5.57;;;5.17;;
34928;SDS011;21133;48.048;7.724;2023-02-28T11:17:02;5.97;;;5.47;;
34928;SDS011;21133;48.048;7.724;2023-02-28T11:19:31;3.60;;;3.40;;
34928;SDS011;21133;48.048;7.724;2023-02-28T11:22:01;3.80;;;3.50;;
34928;SDS011;21133;48.048;7.724;2023-02-28T11:26:54;4.07;;;3.73;;
34928;SDS011;21133;48.048;7.724;2023-02-28T11:29:24;10.07;;;4.20;;
34928;SDS011;21133;48.048;7.724;2023-02-28T11:32:04;6.60;;;5.90;;
34928;SDS011;21133;48.048;7.724;2023-02-28T11:34:30;3.77;;;3.63;;
34928;SDS011;21133;48.048;7.724;2023-02-28T11:36:58;4.27;;;3.97;;
34928;SDS011;21133;48.048;7.724;2023-02-28T11:39:25;5.80;;;4.70;;
34928;SDS011;21133;48.048;7.724;2023-02-28T11:47:17;3.50;;;3.40;;
34928;SDS011;21133;48.048;7.724;2023-02-28T11:54:59;3.57;;;3.40;;
34928;SDS011;21133;48.048;7.724;2023-02-28T12:00:05;4.60;;;4.33;;
34928;SDS011;21133;48.048;7.724;2023-02-28T12:02:50;3.60;;;3.40;;
34928;SDS011;21133;48.048;7.724;2023-02-28T12:05:24;4.27;;;3.97;;
34928;SDS011;21133;48.048;7.724;2023-02-28T12:07:55;3.30;;;3.20;;
34928;SDS011;21133;48.048;7.724;2023-02-28T12:10:25;4.47;;;4.07;;
34928;SDS011;21133;48.048;7.724;2023-02-28T12:28:40;3.93;;;3.73;;
34928;SDS011;21133;48.048;7.724;2023-02-28T12:33:40;4.33;;;4.03;;
34928;SDS011;21133;48.048;7.724;2023-02-28T12:36:09;4.37;;;4.07;;
34928;SDS011;21133;48.048;7.724;2023-02-28T12:38:41;3.47;;;3.20;;
34928;SDS011;21133;48.048;7.724;2023-02-28T12:43:39;4.97;;;4.70;;
34928;SDS011;21133;48.048;7.724;2023-02-28T12:46:17;4.50;;;4.20;;
34928;SDS011;21133;48.048;7.724;2023-02-28T12:48:50;4.77;;;4.40;;
34928;SDS011;21133;48.048;7.724;2023-02-28T12:51:17;7.10;;;4.13;;
34928;SDS011;21133;48.048;7.724;2023-02-28T12:54:04;4.87;;;4.27;;
34928;SDS011;21133;48.048;7.724;2023-02-28T12:56:45;4.50;;;4.30;;
34928;SDS011;21133;48.048;7.724;2023-02-28T12:59:32;5.50;;;5.00;;
34928;SDS011;21133;48.048;7.724;2023-02-28T13:02:18;3.30;;;3.20;;
34928;SDS011;21133;48.048;7.724;2023-02-28T13:09:51;4.80;;;4.37;;
34928;SDS011;21133;48.048;7.724;2023-02-28T13:12:18;6.07;;;5.60;;
34928;SDS011;21133;48.048;7.724;2023-02-28T13:14:45;4.07;;;3.77;;
34928;SDS011;21133;48.048;7.724;2023-02-28T13:17:14;5.40;;;5.00;;
34928;SDS011;21133;48.048;7.724;2023-02-28T13:24:52;4.80;;;4.40;;
34928;SDS011;21133;48.048;7.724;2023-02-28T13:27:23;4.23;;;4.03;;
34928;SDS011;21133;48.048;7.724;2023-02-28T13:29:49;4.27;;;4.00;;
34928;SDS011;21133;48.048;7.724;2023-02-28T13:47:41;5.80;;;5.30;;
34928;SDS011;21133;48.048;7.724;2023-02-28T13:50:14;4.50;;;4.20;;
34928;SDS011;21133;48.048;7.724;2023-02-28T14:06:17;5.33;;;5.00;;
34928;SDS011;21133;48.048;7.724;2023-02-28T14:08:54;7.47;;;5.37;;
34928;SDS011;21133;48.048;7.724;2023-02-28T14:11:28;8.50;;;4.30;;
34928;SDS011;21133;48.048;7.724;2023-02-28T14:13:56;5.10;;;4.87;;
34928;SDS011;21133;48.048;7.724;2023-02-28T14:19:22;5.43;;;4.70;;
34928;SDS011;21133;48.048;7.724;2023-02-28T14:24:29;5.23;;;4.90;;
34928;SDS011;21133;48.048;7.724;2023-02-28T14:35:05;5.63;;;5.23;;
34928;SDS011;21133;48.048;7.724;2023-02-28T14:37:38;4.93;;;4.60;;
34928;SDS011;21133;48.048;7.724;2023-02-28T14:40:04;4.57;;;4.37;;
34928;SDS011;21133;48.048;7.724;2023-02-28T14:42:37;7.00;;;6.00;;
34928;SDS011;21133;48.048;7.724;2023-02-28T14:45:17;6.13;;;5.53;;
34928;SDS011;21133;48.048;7.724;2023-02-28T14:47:43;5.43;;;5.13;;
34928;SDS011;21133;48.048;7.724;2023-02-28T14:50:17;5.40;;;5.07;;
34928;SDS011;21133;48.048;7.724;2023-02-28T14:52:43;7.30;;;5.40;;
34928;SDS011;21133;48.048;7.724;2023-02-28T14:55:13;14.00;;;7.33;;
34928;SDS011;21133;48.048;7.724;2023-02-28T14:58:02;5.73;;;5.33;;
34928;SDS011;21133;48.048;7.724;2023-02-28T15:00:32;5.10;;;4.70;;
34928;SDS011;21133;48.048;7.724;2023-02-28T15:02:59;5.00;;;4.60;;
34928;SDS011;21133;48.048;7.724;2023-02-28T15:05:29;5.30;;;5.10;;
34928;SDS011;21133;48.048;7.724;2023-02-28T15:08:03;5.50;;;5.00;;
34928;SDS011;21133;48.048;7.724;2023-02-28T15:10:29;4.80;;;4.40;;
34928;SDS011;21133;48.048;7.724;2023-02-28T15:12:56;5.73;;;5.40;;
34928;SDS011;21133;48.048;7.724;2023-02-28T15:15:35;4.97;;;4.80;;
34928;SDS011;21133;48.048;7.724;2023-02-28T15:18:06;5.03;;;4.70;;
34928;SDS011;21133;48.048;7.724;2023-02-28T15:20:34;6.40;;;5.80;;
34928;SDS011;21133;48.048;7.724;2023-02-28T15:23:01;5.43;;;4.93;;
34928;SDS011;21133;48.048;7.724;2023-02-28T15:25:27;4.80;;;4.40;;
34928;SDS011;21133;48.048;7.724;2023-02-28T15:27:54;4.53;;;4.23;;
34928;SDS011;21133;48.048;7.724;2023-02-28T15:30:25;5.50;;;5.30;;
34928;SDS011;21133;48.048;7.724;2023-02-28T15:33:15;5.57;;;5.27;;
34928;SDS011;21133;48.048;7.724;2023-02-28T15:35:50;5.30;;;5.00;;
34928;SDS011;21133;48.048;7.724;2023-02-28T15:38:23;4.77;;;4.27;;
34928;SDS011;21133;48.048;7.724;2023-02-28T15:40:53;6.53;;;5.50;;
34928;SDS011;21133;48.048;7.724;2023-02-28T15:46:04;5.97;;;5.47;;
34928;SDS011;21133;48.048;7.724;2023-02-28T15:51:08;5.03;;;4.63;;
34928;SDS011;21133;48.048;7.724;2023-02-28T15:53:36;7.10;;;5.90;;
34928;SDS011;21133;48.048;7.724;2023-02-28T15:56:06;8.00;;;5.60;;
34928;SDS011;21133;48.048;7.724;2023-02-28T15:58:38;8.20;;;7.60;;
34928;SDS011;21133;48.048;7.724;2023-02-28T16:01:08;4.47;;;4.37;;
34928;SDS011;21133;48.048;7.724;2023-02-28T16:03:39;5.37;;;4.87;;
34928;SDS011;21133;48.048;7.724;2023-02-28T16:08:55;4.70;;;4.50;;
34928;SDS011;21133;48.048;7.724;2023-02-28T16:11:21;5.60;;;5.00;;
34928;SDS011;21133;48.048;7.724;2023-02-28T16:13:47;5.30;;;5.00;;
34928;SDS011;21133;48.048;7.724;2023-02-28T16:16:21;5.37;;;4.93;;
34928;SDS011;21133;48.048;7.724;2023-02-28T16:18:47;5.73;;;5.20;;
34928;SDS011;21133;48.048;7.724;2023-02-28T16:21:13;5.67;;;5.17;;
34928;SDS011;21133;48.048;7.724;2023-02-28T16:23:39;6.33;;;5.83;;
34928;SDS011;21133;48.048;7.724;2023-02-28T16:26:06;7.55;;;6.85;;
34928;SDS011;21133;48.048;7.724;2023-02-28T16:28:34;8.27;;;7.00;;
34928;SDS011;21133;48.048;7.724;2023-02-28T16:31:01;6.47;;;6.00;;
34928;SDS011;21133;48.048;7.724;2023-02-28T16:33:33;5.73;;;5.27;;
34928;SDS011;21133;48.048;7.724;2023-02-28T16:35:59;13.03;;;6.07;;
34928;SDS011;21133;48.048;7.724;2023-02-28T16:38:25;5.17;;;4.97;;
34928;SDS011;21133;48.048;7.724;2023-02-28T16:40:51;6.10;;;5.70;;
34928;SDS011;21133;48.048;7.724;2023-02-28T16:43:19;5.13;;;4.80;;
34928;SDS011;21133;48.048;7.724;2023-02-28T16:45:47;5.50;;;5.20;;
34928;SDS011;21133;48.048;7.724;2023-02-28T16:48:14;6.77;;;5.57;;
34928;SDS011;21133;48.048;7.724;2023-02-28T16:50:41;9.43;;;6.40;;
34928;SDS011;21133;48.048;7.724;2023-02-28T16:53:08;10.53;;;9.43;;
34928;SDS011;21133;48.048;7.724;2023-02-28T16:55:34;16.70;;;9.70;;
34928;SDS011;21133;48.048;7.724;2023-02-28T16:58:01;18.07;;;11.10;;
34928;SDS011;21133;48.048;7.724;2023-02-28T17:00:28;12.00;;;8.77;;
34928;SDS011;21133;48.048;7.724;2023-02-28T17:02:54;15.27;;;9.87;;
34928;SDS011;21133;48.048;7.724;2023-02-28T17:05:20;16.60;;;10.83;;
34928;SDS011;21133;48.048;7.724;2023-02-28T17:07:46;25.00;;;12.77;;
34928;SDS011;21133;48.048;7.724;2023-02-28T17:10:14;17.80;;;11.27;;
34928;SDS011;21133;48.048;7.724;2023-02-28T17:12:40;7.90;;;7.10;;
34928;SDS011;21133;48.048;7.724;2023-02-28T17:15:06;6.63;;;6.13;;
34928;SDS011;21133;48.048;7.724;2023-02-28T17:17:32;6.20;;;5.70;;
34928;SDS011;21133;48.048;7.724;2023-02-28T17:19:58;6.27;;;5.80;;
34928;SDS011;21133;48.048;7.724;2023-02-28T17:22:24;7.13;;;6.53;;
34928;SDS011;21133;48.048;7.724;2023-02-28T17:24:51;6.50;;;6.10;;